sensor_id;sensor_type;location;lat;lon;timestamp;pressure;altitude;pressure_sealevel;temperature;humidity
43115;BME280;28727;50.068;14.452;2022-08-18T00:02:09;98718.00;;;24.62;48.93
43115;BME280;28727;50.068;14.452;2022-08-18T00:04:43;98715.31;;;24.62;48.94
43115;BME280;28727;50.068;14.452;2022-08-18T00:07:24;98715.59;;;24.60;49.09
43115;BME280;28727;50.068;14.452;2022-08-18T00:09:56;98707.75;;;24.59;49.01
43115;BME280;28727;50.068;14.452;2022-08-18T00:12:40;98718.56;;;24.54;48.86
43115;BME280;28727;50.068;14.452;2022-08-18T00:15:14;98711.31;;;24.39;49.20
43115;BME280;28727;50.068;14.452;2022-08-18T00:17:47;98711.88;;;24.36;49.10
43115;BME280;28727;50.068;14.452;2022-08-18T00:20:22;98721.84;;;24.40;48.96
43115;BME280;28727;50.068;14.452;2022-08-18T00:22:54;98723.19;;;24.43;48.63
43115;BME280;28727;50.068;14.452;2022-08-18T00:25:28;98721.81;;;24.45;48.84
43115;BME280;28727;50.068;14.452;2022-08-18T00:28:00;98725.06;;;24.47;48.76
43115;BME280;28727;50.068;14.452;2022-08-18T00:30:33;98731.28;;;24.48;49.30
43115;BME280;28727;50.068;14.452;2022-08-18T00:33:07;98721.56;;;24.47;49.26
43115;BME280;28727;50.068;14.452;2022-08-18T00:35:39;98728.34;;;24.44;49.58
43115;BME280;28727;50.068;14.452;2022-08-18T00:38:14;98722.66;;;24.41;49.62
43115;BME280;28727;50.068;14.452;2022-08-18T00:40:55;98727.81;;;24.37;50.03
43115;BME280;28727;50.068;14.452;2022-08-18T00:43:31;98719.97;;;24.36;50.16
43115;BME280;28727;50.068;14.452;2022-08-18T00:46:08;98717.53;;;24.29;50.16
43115;BME280;28727;50.068;14.452;2022-08-18T00:48:42;98720.00;;;24.26;50.25
43115;BME280;28727;50.068;14.452;2022-08-18T00:52:04;98725.41;;;24.26;50.71
43115;BME280;28727;50.068;14.452;2022-08-18T00:54:23;98733.78;;;24.19;50.74
43115;BME280;28727;50.068;14.452;2022-08-18T00:57:04;98729.44;;;24.18;50.74
43115;BME280;28727;50.068;14.452;2022-08-18T00:59:47;98724.03;;;24.13;50.47
43115;BME280;28727;50.068;14.452;2022-08-18T01:02:28;98732.94;;;24.08;50.80
43115;BME280;28727;50.068;14.452;2022-08-18T01:05:07;98726.19;;;24.06;50.97
43115;BME280;28727;50.068;14.452;2022-08-18T01:07:41;98732.16;;;24.03;50.92
43115;BME280;28727;50.068;14.452;2022-08-18T01:10:20;98728.34;;;23.99;51.13
43115;BME280;28727;50.068;14.452;2022-08-18T01:12:55;98716.22;;;23.96;51.57
43115;BME280;28727;50.068;14.452;2022-08-18T01:15:28;98714.06;;;23.93;51.26
43115;BME280;28727;50.068;14.452;2022-08-18T01:18:09;98723.50;;;23.91;51.83
43115;BME280;28727;50.068;14.452;2022-08-18T01:21:11;98725.94;;;23.87;51.92
43115;BME280;28727;50.068;14.452;2022-08-18T01:24:06;98727.00;;;23.86;51.62
43115;BME280;28727;50.068;14.452;2022-08-18T01:26:40;98721.34;;;23.83;51.89
43115;BME280;28727;50.068;14.452;2022-08-18T01:29:18;98718.91;;;23.81;52.17
43115;BME280;28727;50.068;14.452;2022-08-18T01:31:53;98721.91;;;23.80;52.08
43115;BME280;28727;50.068;14.452;2022-08-18T01:34:30;98717.03;;;23.77;52.40
43115;BME280;28727;50.068;14.452;2022-08-18T01:37:04;98714.59;;;23.75;52.76
43115;BME280;28727;50.068;14.452;2022-08-18T01:39:36;98718.91;;;23.71;52.80
43115;BME280;28727;50.068;14.452;2022-08-18T01:42:29;98716.75;;;23.68;52.64
43115;BME280;28727;50.068;14.452;2022-08-18T01:45:06;98705.69;;;23.64;52.72
43115;BME280;28727;50.068;14.452;2022-08-18T01:47:39;98709.75;;;23.62;52.84
43115;BME280;28727;50.068;14.452;2022-08-18T01:50:18;98710.28;;;23.59;53.02
43115;BME280;28727;50.068;14.452;2022-08-18T01:52:50;98714.31;;;23.56;53.22
43115;BME280;28727;50.068;14.452;2022-08-18T01:55:26;98710.84;;;23.56;53.34
43115;BME280;28727;50.068;14.452;2022-08-18T01:57:58;98707.84;;;23.52;53.47
43115;BME280;28727;50.068;14.452;2022-08-18T02:00:32;98710.28;;;23.49;53.65
43115;BME280;28727;50.068;14.452;2022-08-18T02:03:06;98701.88;;;23.45;53.39
43115;BME280;28727;50.068;14.452;2022-08-18T02:05:47;98700.53;;;23.43;53.53
43115;BME280;28727;50.068;14.452;2022-08-18T02:08:20;98697.28;;;23.41;53.97
43115;BME280;28727;50.068;14.452;2022-08-18T02:11:01;98704.03;;;23.38;53.24
43115;BME280;28727;50.068;14.452;2022-08-18T02:13:34;98704.56;;;23.30;53.72
43115;BME280;28727;50.068;14.452;2022-08-18T02:16:06;98711.56;;;23.26;53.77
43115;BME280;28727;50.068;14.452;2022-08-18T02:18:38;98713.72;;;23.24;53.68
43115;BME280;28727;50.068;14.452;2022-08-18T02:21:19;98726.34;;;23.18;53.84
43115;BME280;28727;50.068;14.452;2022-08-18T02:23:51;98723.94;;;23.17;53.56
43115;BME280;28727;50.068;14.452;2022-08-18T02:26:24;98731.19;;;23.16;53.85
43115;BME280;28727;50.068;14.452;2022-08-18T02:28:56;98723.66;;;23.13;53.94
43115;BME280;28727;50.068;14.452;2022-08-18T02:31:28;98729.03;;;23.13;53.68
43115;BME280;28727;50.068;14.452;2022-08-18T02:33:59;98733.88;;;23.11;53.84
43115;BME280;28727;50.068;14.452;2022-08-18T02:36:31;98732.53;;;23.09;53.67
43115;BME280;28727;50.068;14.452;2022-08-18T02:39:03;98730.38;;;23.06;53.80
43115;BME280;28727;50.068;14.452;2022-08-18T02:41:34;98723.34;;;23.05;53.82
43115;BME280;28727;50.068;14.452;2022-08-18T02:44:08;98719.84;;;23.04;54.18
43115;BME280;28727;50.068;14.452;2022-08-18T02:46:39;98722.53;;;23.04;54.08
43115;BME280;28727;50.068;14.452;2022-08-18T02:49:11;98716.63;;;23.02;54.32
43115;BME280;28727;50.068;14.452;2022-08-18T02:51:43;98713.63;;;22.99;53.98
43115;BME280;28727;50.068;14.452;2022-08-18T02:54:14;98714.44;;;22.94;54.62
43115;BME280;28727;50.068;14.452;2022-08-18T02:56:46;98719.00;;;22.94;54.25
43115;BME280;28727;50.068;14.452;2022-08-18T02:59:24;98720.38;;;22.91;54.66
43115;BME280;28727;50.068;14.452;2022-08-18T03:01:56;98727.88;;;22.89;54.65
43115;BME280;28727;50.068;14.452;2022-08-18T03:04:29;98716.56;;;22.87;54.82
43115;BME280;28727;50.068;14.452;2022-08-18T03:07:03;98716.28;;;22.83;54.96
43115;BME280;28727;50.068;14.452;2022-08-18T03:09:36;98716.53;;;22.82;55.20
43115;BME280;28727;50.068;14.452;2022-08-18T03:12:08;98717.91;;;22.79;55.03
43115;BME280;28727;50.068;14.452;2022-08-18T03:14:42;98724.34;;;22.78;55.29
43115;BME280;28727;50.068;14.452;2022-08-18T03:17:14;98723.78;;;22.76;55.51
43115;BME280;28727;50.068;14.452;2022-08-18T03:19:46;98731.06;;;22.76;55.36
43115;BME280;28727;50.068;14.452;2022-08-18T03:22:18;98728.09;;;22.72;55.57
43115;BME280;28727;50.068;14.452;2022-08-18T03:25:03;98732.06;;;22.70;55.65
43115;BME280;28727;50.068;14.452;2022-08-18T03:27:35;98731.53;;;22.68;55.61
43115;BME280;28727;50.068;14.452;2022-08-18T03:30:07;98730.97;;;22.66;55.31
43115;BME280;28727;50.068;14.452;2022-08-18T03:32:41;98730.44;;;22.64;55.59
43115;BME280;28727;50.068;14.452;2022-08-18T03:35:16;98725.59;;;22.61;55.73
43115;BME280;28727;50.068;14.452;2022-08-18T03:37:48;98728.53;;;22.59;56.14
43115;BME280;28727;50.068;14.452;2022-08-18T03:40:21;98726.09;;;22.58;56.05
43115;BME280;28727;50.068;14.452;2022-08-18T03:42:53;98733.63;;;22.56;55.97
43115;BME280;28727;50.068;14.452;2022-08-18T03:45:24;98736.03;;;22.52;56.32
43115;BME280;28727;50.068;14.452;2022-08-18T03:47:59;98735.50;;;22.50;56.30
43115;BME280;28727;50.068;14.452;2022-08-18T03:50:31;98736.28;;;22.51;56.22
43115;BME280;28727;50.068;14.452;2022-08-18T03:53:06;98737.06;;;22.46;56.50
43115;BME280;28727;50.068;14.452;2022-08-18T03:55:40;98738.13;;;22.45;56.29
43115;BME280;28727;50.068;14.452;2022-08-18T03:58:12;98723.31;;;22.42;56.46
43115;BME280;28727;50.068;14.452;2022-08-18T04:00:45;98727.34;;;22.40;56.59
43115;BME280;28727;50.068;14.452;2022-08-18T04:03:18;98732.72;;;22.40;56.51
43115;BME280;28727;50.068;14.452;2022-08-18T04:05:49;98728.94;;;22.36;56.41
43115;BME280;28727;50.068;14.452;2022-08-18T04:08:21;98736.75;;;22.37;56.46
43115;BME280;28727;50.068;14.452;2022-08-18T04:10:53;98740.78;;;22.40;56.24
43115;BME280;28727;50.068;14.452;2022-08-18T04:13:35;98741.34;;;22.42;56.34
43115;BME280;28727;50.068;14.452;2022-08-18T04:16:10;98737.03;;;22.41;56.48
43115;BME280;28727;50.068;14.452;2022-08-18T04:18:42;98738.41;;;22.43;56.50
43115;BME280;28727;50.068;14.452;2022-08-18T04:21:13;98745.38;;;22.44;56.73
43115;BME280;28727;50.068;14.452;2022-08-18T04:23:45;98738.94;;;22.45;56.89
43115;BME280;28727;50.068;14.452;2022-08-18T04:26:17;98749.72;;;22.45;57.05
43115;BME280;28727;50.068;14.452;2022-08-18T04:28:50;98750.28;;;22.48;56.73
43115;BME280;28727;50.068;14.452;2022-08-18T04:31:22;98742.75;;;22.50;56.42
43115;BME280;28727;50.068;14.452;2022-08-18T04:33:59;98749.22;;;22.54;55.89
43115;BME280;28727;50.068;14.452;2022-08-18T04:36:35;98743.31;;;22.57;56.00
43115;BME280;28727;50.068;14.452;2022-08-18T04:39:08;98747.13;;;22.61;55.48
43115;BME280;28727;50.068;14.452;2022-08-18T04:41:43;98739.88;;;22.66;55.03
43115;BME280;28727;50.068;14.452;2022-08-18T04:44:18;98744.81;;;22.79;54.97
43115;BME280;28727;50.068;14.452;2022-08-18T04:46:52;98738.41;;;22.91;54.83
43115;BME280;28727;50.068;14.452;2022-08-18T04:49:24;98744.09;;;23.04;54.36
43115;BME280;28727;50.068;14.452;2022-08-18T04:51:57;98747.09;;;23.13;53.97
43115;BME280;28727;50.068;14.452;2022-08-18T04:55:08;98744.97;;;23.20;53.54
43115;BME280;28727;50.068;14.452;2022-08-18T04:57:40;98743.63;;;23.27;53.21
43115;BME280;28727;50.068;14.452;2022-08-18T05:00:13;98753.66;;;23.42;52.89
43115;BME280;28727;50.068;14.452;2022-08-18T05:02:45;98753.44;;;23.54;52.15
43115;BME280;28727;50.068;14.452;2022-08-18T05:05:17;98752.63;;;23.63;51.94
43115;BME280;28727;50.068;14.452;2022-08-18T05:07:48;98746.69;;;23.72;51.52
43115;BME280;28727;50.068;14.452;2022-08-18T05:10:20;98755.34;;;23.89;51.43
43115;BME280;28727;50.068;14.452;2022-08-18T05:12:51;98752.91;;;24.07;50.95
43115;BME280;28727;50.068;14.452;2022-08-18T05:15:23;98747.00;;;24.21;50.67
43115;BME280;28727;50.068;14.452;2022-08-18T05:17:55;98741.28;;;24.27;50.51
43115;BME280;28727;50.068;14.452;2022-08-18T05:20:29;98743.44;;;24.35;50.07
43115;BME280;28727;50.068;14.452;2022-08-18T05:23:03;98741.28;;;24.42;49.79
43115;BME280;28727;50.068;14.452;2022-08-18T05:25:37;98746.66;;;24.53;49.66
43115;BME280;28727;50.068;14.452;2022-08-18T05:28:10;98766.84;;;24.75;48.98
43115;BME280;28727;50.068;14.452;2022-08-18T05:30:43;98752.78;;;24.88;48.93
43115;BME280;28727;50.068;14.452;2022-08-18T05:33:15;98753.78;;;25.08;48.56
43115;BME280;28727;50.068;14.452;2022-08-18T05:35:50;98753.94;;;25.32;47.85
43115;BME280;28727;50.068;14.452;2022-08-18T05:38:37;98762.19;;;25.60;47.15
43115;BME280;28727;50.068;14.452;2022-08-18T05:41:25;98756.94;;;25.74;46.56
43115;BME280;28727;50.068;14.452;2022-08-18T05:43:59;98753.56;;;25.87;46.22
43115;BME280;28727;50.068;14.452;2022-08-18T05:46:43;98757.94;;;25.83;46.32
43115;BME280;28727;50.068;14.452;2022-08-18T05:49:21;98746.66;;;25.71;46.44
43115;BME280;28727;50.068;14.452;2022-08-18T05:51:58;98748.06;;;25.63;46.37
43115;BME280;28727;50.068;14.452;2022-08-18T05:54:42;98746.75;;;25.56;46.76
43115;BME280;28727;50.068;14.452;2022-08-18T05:57:41;98747.31;;;25.53;46.62
43115;BME280;28727;50.068;14.452;2022-08-18T06:00:18;98748.16;;;25.48;46.75
43115;BME280;28727;50.068;14.452;2022-08-18T06:03:31;98749.50;;;25.46;46.87
43115;BME280;28727;50.068;14.452;2022-08-18T06:06:21;98754.19;;;25.35;47.07
43115;BME280;28727;50.068;14.452;2022-08-18T06:09:16;98758.84;;;25.24;47.10
43115;BME280;28727;50.068;14.452;2022-08-18T06:11:49;98753.69;;;25.23;47.36
43115;BME280;28727;50.068;14.452;2022-08-18T06:14:20;98750.19;;;25.22;47.20
43115;BME280;28727;50.068;14.452;2022-08-18T06:20:11;98756.41;;;25.23;47.87
43115;BME280;28727;50.068;14.452;2022-08-18T06:37:41;98771.06;;;25.12;47.99
43115;BME280;28727;50.068;14.452;2022-08-18T06:40:34;98768.59;;;25.20;48.32
43115;BME280;28727;50.068;14.452;2022-08-18T06:43:08;98773.72;;;25.22;48.09
43115;BME280;28727;50.068;14.452;2022-08-18T06:45:45;98769.13;;;25.22;48.06
43115;BME280;28727;50.068;14.452;2022-08-18T06:48:48;98774.03;;;25.10;48.07
43115;BME280;28727;50.068;14.452;2022-08-18T06:51:22;98771.38;;;25.05;48.29
43115;BME280;28727;50.068;14.452;2022-08-18T06:54:07;98773.78;;;25.12;48.33
43115;BME280;28727;50.068;14.452;2022-08-18T06:56:56;98778.34;;;25.16;47.80
43115;BME280;28727;50.068;14.452;2022-08-18T06:59:33;98775.91;;;25.20;47.96
43115;BME280;28727;50.068;14.452;2022-08-18T07:02:17;98776.72;;;25.20;47.68
43115;BME280;28727;50.068;14.452;2022-08-18T07:05:02;98779.69;;;25.19;47.62
43115;BME280;28727;50.068;14.452;2022-08-18T07:07:38;98781.50;;;25.34;47.25
43115;BME280;28727;50.068;14.452;2022-08-18T07:12:46;98790.13;;;25.41;47.37
43115;BME280;28727;50.068;14.452;2022-08-18T07:15:22;98786.53;;;25.55;47.56
43115;BME280;28727;50.068;14.452;2022-08-18T07:18:03;98787.84;;;25.63;47.26
43115;BME280;28727;50.068;14.452;2022-08-18T07:20:51;98792.16;;;25.64;47.22
43115;BME280;28727;50.068;14.452;2022-08-18T07:23:32;98794.56;;;25.71;47.31
43115;BME280;28727;50.068;14.452;2022-08-18T07:26:09;98795.44;;;25.61;47.15
43115;BME280;28727;50.068;14.452;2022-08-18T07:28:51;98800.88;;;25.51;47.26
43115;BME280;28727;50.068;14.452;2022-08-18T07:31:50;98797.94;;;25.47;47.47
43115;BME280;28727;50.068;14.452;2022-08-18T07:34:33;98790.66;;;25.43;47.71
43115;BME280;28727;50.068;14.452;2022-08-18T07:37:23;98796.31;;;25.46;47.54
43115;BME280;28727;50.068;14.452;2022-08-18T07:40:24;98799.59;;;25.43;47.53
43115;BME280;28727;50.068;14.452;2022-08-18T07:43:00;98796.56;;;25.50;47.76
43115;BME280;28727;50.068;14.452;2022-08-18T07:45:40;98809.25;;;25.54;47.83
43115;BME280;28727;50.068;14.452;2022-08-18T07:48:24;98808.97;;;25.61;47.58
43115;BME280;28727;50.068;14.452;2022-08-18T07:51:31;98811.34;;;25.73;47.09
43115;BME280;28727;50.068;14.452;2022-08-18T07:54:26;98809.38;;;25.83;46.83
43115;BME280;28727;50.068;14.452;2022-08-18T07:57:39;98810.69;;;25.91;46.84
43115;BME280;28727;50.068;14.452;2022-08-18T08:00:23;98801.88;;;26.09;46.46
43115;BME280;28727;50.068;14.452;2022-08-18T08:06:45;98793.06;;;26.27;46.37
43115;BME280;28727;50.068;14.452;2022-08-18T08:09:54;98791.06;;;26.67;45.74
43115;BME280;28727;50.068;14.452;2022-08-18T08:16:10;98791.16;;;27.28;44.07
43115;BME280;28727;50.068;14.452;2022-08-18T08:22:03;98785.84;;;28.17;42.20
43115;BME280;28727;50.068;14.452;2022-08-18T08:24:43;98780.03;;;28.23;42.27
43115;BME280;28727;50.068;14.452;2022-08-18T08:30:29;98774.66;;;28.50;41.10
43115;BME280;28727;50.068;14.452;2022-08-18T08:35:55;98770.25;;;29.37;39.61
43115;BME280;28727;50.068;14.452;2022-08-18T08:38:45;98755.38;;;29.92;38.48
43115;BME280;28727;50.068;14.452;2022-08-18T08:41:22;98754.69;;;30.09;37.57
43115;BME280;28727;50.068;14.452;2022-08-18T08:44:21;98757.25;;;30.67;36.46
43115;BME280;28727;50.068;14.452;2022-08-18T08:46:59;98748.47;;;30.79;36.06
43115;BME280;28727;50.068;14.452;2022-08-18T08:49:56;98741.91;;;30.80;36.17
43115;BME280;28727;50.068;14.452;2022-08-18T08:55:19;98746.72;;;31.57;34.14
43115;BME280;28727;50.068;14.452;2022-08-18T09:00:47;98730.78;;;31.42;35.15
43115;BME280;28727;50.068;14.452;2022-08-18T09:21:23;98669.84;;;33.07;32.82
43115;BME280;28727;50.068;14.452;2022-08-18T09:23:50;98668.34;;;33.18;32.39
43115;BME280;28727;50.068;14.452;2022-08-18T09:26:40;98658.81;;;33.24;31.55
43115;BME280;28727;50.068;14.452;2022-08-18T09:38:08;98637.47;;;33.83;31.39
43115;BME280;28727;50.068;14.452;2022-08-18T09:41:25;98633.84;;;33.91;30.55
43115;BME280;28727;50.068;14.452;2022-08-18T09:44:11;98630.16;;;33.87;30.29
43115;BME280;28727;50.068;14.452;2022-08-18T09:47:03;98614.31;;;33.81;29.88
43115;BME280;28727;50.068;14.452;2022-08-18T09:49:43;98613.84;;;33.58;30.83
43115;BME280;28727;50.068;14.452;2022-08-18T09:57:35;98619.22;;;33.99;29.83
43115;BME280;28727;50.068;14.452;2022-08-18T10:00:28;98618.25;;;34.16;30.24
43115;BME280;28727;50.068;14.452;2022-08-18T10:03:11;98621.34;;;34.39;30.06
43115;BME280;28727;50.068;14.452;2022-08-18T10:06:05;98615.72;;;34.35;29.34
43115;BME280;28727;50.068;14.452;2022-08-18T10:08:54;98619.19;;;34.32;29.90
43115;BME280;28727;50.068;14.452;2022-08-18T10:11:54;98616.44;;;34.32;29.77
43115;BME280;28727;50.068;14.452;2022-08-18T10:22:56;98585.47;;;34.44;29.68
43115;BME280;28727;50.068;14.452;2022-08-18T10:25:32;98588.44;;;34.51;29.70
43115;BME280;28727;50.068;14.452;2022-08-18T10:28:07;98593.34;;;34.45;29.57
43115;BME280;28727;50.068;14.452;2022-08-18T10:30:46;98591.25;;;34.18;29.83
43115;BME280;28727;50.068;14.452;2022-08-18T10:34:07;98591.22;;;33.82;30.93
43115;BME280;28727;50.068;14.452;2022-08-18T10:36:52;98582.81;;;33.87;30.96
43115;BME280;28727;50.068;14.452;2022-08-18T10:42:26;98582.13;;;34.02;30.60
43115;BME280;28727;50.068;14.452;2022-08-18T10:47:37;98566.56;;;34.06;30.96
43115;BME280;28727;50.068;14.452;2022-08-18T10:50:21;98570.44;;;34.17;30.33
43115;BME280;28727;50.068;14.452;2022-08-18T10:56:18;98591.94;;;34.15;30.75
43115;BME280;28727;50.068;14.452;2022-08-18T10:59:15;98593.78;;;34.23;30.06
43115;BME280;28727;50.068;14.452;2022-08-18T11:02:15;98588.88;;;34.29;30.02
43115;BME280;28727;50.068;14.452;2022-08-18T11:04:52;98581.09;;;34.43;29.87
43115;BME280;28727;50.068;14.452;2022-08-18T11:07:30;98589.44;;;34.46;29.28
43115;BME280;28727;50.068;14.452;2022-08-18T11:19:17;98588.63;;;34.70;28.77
43115;BME280;28727;50.068;14.452;2022-08-18T11:21:53;98596.50;;;34.84;28.56
43115;BME280;28727;50.068;14.452;2022-08-18T11:24:28;98596.03;;;34.82;28.55
43115;BME280;28727;50.068;14.452;2022-08-18T11:27:20;98593.16;;;34.90;28.99
43115;BME280;28727;50.068;14.452;2022-08-18T11:29:57;98593.22;;;35.06;28.66
43115;BME280;28727;50.068;14.452;2022-08-18T11:32:36;98595.31;;;35.37;28.66
43115;BME280;28727;50.068;14.452;2022-08-18T11:35:30;98587.69;;;35.18;28.17
43115;BME280;28727;50.068;14.452;2022-08-18T11:38:10;98584.19;;;35.06;28.67
43115;BME280;28727;50.068;14.452;2022-08-18T11:41:18;98589.06;;;34.84;28.67
43115;BME280;28727;50.068;14.452;2022-08-18T11:43:55;98590.13;;;34.56;29.39
43115;BME280;28727;50.068;14.452;2022-08-18T11:46:35;98575.13;;;34.77;29.28
43115;BME280;28727;50.068;14.452;2022-08-18T11:49:27;98571.47;;;35.13;29.07
43115;BME280;28727;50.068;14.452;2022-08-18T11:52:28;98570.94;;;35.36;28.75
43115;BME280;28727;50.068;14.452;2022-08-18T11:55:17;98566.28;;;35.24;28.57
43115;BME280;28727;50.068;14.452;2022-08-18T11:57:56;98568.44;;;35.30;28.94
43115;BME280;28727;50.068;14.452;2022-08-18T12:03:37;98566.56;;;35.07;28.14
43115;BME280;28727;50.068;14.452;2022-08-18T12:06:25;98559.13;;;34.67;29.24
43115;BME280;28727;50.068;14.452;2022-08-18T12:09:05;98563.38;;;34.40;29.21
43115;BME280;28727;50.068;14.452;2022-08-18T12:11:51;98562.03;;;34.34;29.74
43115;BME280;28727;50.068;14.452;2022-08-18T12:14:26;98561.44;;;34.29;29.38
43115;BME280;28727;50.068;14.452;2022-08-18T12:17:12;98544.63;;;34.18;30.10
43115;BME280;28727;50.068;14.452;2022-08-18T12:19:44;98542.94;;;34.13;30.04
43115;BME280;28727;50.068;14.452;2022-08-18T12:22:26;98550.59;;;34.08;30.35
43115;BME280;28727;50.068;14.452;2022-08-18T12:24:58;98536.06;;;33.95;30.19
43115;BME280;28727;50.068;14.452;2022-08-18T12:27:32;98545.56;;;33.98;30.18
43115;BME280;28727;50.068;14.452;2022-08-18T12:30:05;98533.34;;;33.95;30.33
43115;BME280;28727;50.068;14.452;2022-08-18T12:32:47;98531.84;;;33.86;29.94
43115;BME280;28727;50.068;14.452;2022-08-18T12:35:21;98534.78;;;33.68;30.77
43115;BME280;28727;50.068;14.452;2022-08-18T12:37:56;98524.75;;;33.72;30.62
43115;BME280;28727;50.068;14.452;2022-08-18T12:40:41;98515.06;;;33.99;30.66
43115;BME280;28727;50.068;14.452;2022-08-18T12:43:13;98513.13;;;34.24;29.97
43115;BME280;28727;50.068;14.452;2022-08-18T12:45:45;98501.66;;;34.46;29.19
43115;BME280;28727;50.068;14.452;2022-08-18T12:48:17;98501.19;;;34.57;29.43
43115;BME280;28727;50.068;14.452;2022-08-18T12:50:52;98485.06;;;34.55;29.58
43115;BME280;28727;50.068;14.452;2022-08-18T12:53:30;98488.13;;;34.53;29.48
43115;BME280;28727;50.068;14.452;2022-08-18T12:56:28;98475.50;;;34.37;28.72
43115;BME280;28727;50.068;14.452;2022-08-18T12:59:03;98490.28;;;34.08;29.22
43115;BME280;28727;50.068;14.452;2022-08-18T13:01:38;98481.47;;;33.90;29.20
43115;BME280;28727;50.068;14.452;2022-08-18T13:04:12;98474.97;;;33.83;29.04
43115;BME280;28727;50.068;14.452;2022-08-18T13:06:51;98471.41;;;33.94;28.59
43115;BME280;28727;50.068;14.452;2022-08-18T13:09:33;98478.25;;;34.12;28.16
43115;BME280;28727;50.068;14.452;2022-08-18T13:12:24;98477.38;;;34.08;28.33
43115;BME280;28727;50.068;14.452;2022-08-18T13:14:57;98477.47;;;34.00;28.96
43115;BME280;28727;50.068;14.452;2022-08-18T13:17:29;98468.44;;;33.99;28.85
43115;BME280;28727;50.068;14.452;2022-08-18T13:20:07;98469.72;;;34.02;28.98
43115;BME280;28727;50.068;14.452;2022-08-18T13:22:43;98468.25;;;33.92;28.44
43115;BME280;28727;50.068;14.452;2022-08-18T13:25:15;98463.56;;;33.93;28.48
43115;BME280;28727;50.068;14.452;2022-08-18T13:28:08;98450.84;;;34.00;28.04
43115;BME280;28727;50.068;14.452;2022-08-18T13:30:44;98445.84;;;34.02;27.84
43115;BME280;28727;50.068;14.452;2022-08-18T13:33:16;98455.09;;;34.10;27.67
43115;BME280;28727;50.068;14.452;2022-08-18T13:36:11;98458.75;;;34.02;27.34
43115;BME280;28727;50.068;14.452;2022-08-18T13:38:42;98464.81;;;33.95;27.99
43115;BME280;28727;50.068;14.452;2022-08-18T13:41:14;98454.31;;;33.97;27.62
43115;BME280;28727;50.068;14.452;2022-08-18T13:43:47;98449.72;;;34.01;27.79
43115;BME280;28727;50.068;14.452;2022-08-18T13:46:19;98448.03;;;33.97;27.30
43115;BME280;28727;50.068;14.452;2022-08-18T13:49:00;98442.78;;;33.92;27.15
43115;BME280;28727;50.068;14.452;2022-08-18T13:51:34;98441.28;;;33.94;27.73
43115;BME280;28727;50.068;14.452;2022-08-18T13:54:09;98438.91;;;33.93;27.66
43115;BME280;28727;50.068;14.452;2022-08-18T13:57:02;98433.97;;;33.98;28.05
43115;BME280;28727;50.068;14.452;2022-08-18T13:59:34;98429.94;;;34.08;27.39
43115;BME280;28727;50.068;14.452;2022-08-18T14:02:09;98430.16;;;34.15;27.58
43115;BME280;28727;50.068;14.452;2022-08-18T14:04:40;98432.69;;;34.20;27.75
43115;BME280;28727;50.068;14.452;2022-08-18T14:07:16;98431.31;;;34.26;27.17
43115;BME280;28727;50.068;14.452;2022-08-18T14:10:03;98429.81;;;34.29;26.89
43115;BME280;28727;50.068;14.452;2022-08-18T14:12:36;98419.75;;;34.33;26.87
43115;BME280;28727;50.068;14.452;2022-08-18T14:15:13;98426.47;;;34.35;27.38
43115;BME280;28727;50.068;14.452;2022-08-18T14:17:46;98423.19;;;34.30;27.26
43115;BME280;28727;50.068;14.452;2022-08-18T14:20:18;98419.00;;;34.20;27.63
43115;BME280;28727;50.068;14.452;2022-08-18T14:23:18;98431.78;;;34.16;27.04
43115;BME280;28727;50.068;14.452;2022-08-18T14:26:14;98452.78;;;34.12;27.21
43115;BME280;28727;50.068;14.452;2022-08-18T14:29:04;98450.28;;;34.07;27.75
43115;BME280;28727;50.068;14.452;2022-08-18T14:31:36;98438.19;;;34.08;27.74
43115;BME280;28727;50.068;14.452;2022-08-18T14:34:08;98441.81;;;34.12;27.67
43115;BME280;28727;50.068;14.452;2022-08-18T14:36:41;98442.75;;;34.16;27.66
43115;BME280;28727;50.068;14.452;2022-08-18T14:39:14;98437.47;;;34.11;27.62
43115;BME280;28727;50.068;14.452;2022-08-18T14:41:46;98434.16;;;34.05;26.63
43115;BME280;28727;50.068;14.452;2022-08-18T14:44:26;98429.59;;;34.09;27.13
43115;BME280;28727;50.068;14.452;2022-08-18T14:47:02;98436.69;;;34.10;26.95
43115;BME280;28727;50.068;14.452;2022-08-18T14:49:34;98420.91;;;34.07;26.50
43115;BME280;28727;50.068;14.452;2022-08-18T14:52:18;98422.88;;;34.07;27.28
43115;BME280;28727;50.068;14.452;2022-08-18T14:54:50;98425.72;;;34.10;26.61
43115;BME280;28727;50.068;14.452;2022-08-18T14:57:24;98417.03;;;34.08;26.84
43115;BME280;28727;50.068;14.452;2022-08-18T14:59:57;98423.00;;;34.10;26.74
43115;BME280;28727;50.068;14.452;2022-08-18T15:02:29;98415.69;;;34.02;27.38
43115;BME280;28727;50.068;14.452;2022-08-18T15:05:00;98414.53;;;34.03;27.09
43115;BME280;28727;50.068;14.452;2022-08-18T15:07:51;98415.91;;;34.09;27.04
43115;BME280;28727;50.068;14.452;2022-08-18T15:10:23;98415.91;;;34.09;27.27
43115;BME280;28727;50.068;14.452;2022-08-18T15:12:58;98422.41;;;34.05;26.75
43115;BME280;28727;50.068;14.452;2022-08-18T15:15:34;98421.84;;;33.99;27.02
43115;BME280;28727;50.068;14.452;2022-08-18T15:18:22;98408.38;;;33.94;27.58
43115;BME280;28727;50.068;14.452;2022-08-18T15:20:58;98410.44;;;33.97;27.28
43115;BME280;28727;50.068;14.452;2022-08-18T15:24:06;98402.78;;;34.03;27.60
43115;BME280;28727;50.068;14.452;2022-08-18T15:26:57;98393.03;;;34.05;27.50
43115;BME280;28727;50.068;14.452;2022-08-18T15:29:37;98388.59;;;34.01;27.52
43115;BME280;28727;50.068;14.452;2022-08-18T15:32:15;98390.56;;;34.00;27.20
43115;BME280;28727;50.068;14.452;2022-08-18T15:34:48;98379.50;;;33.97;27.57
43115;BME280;28727;50.068;14.452;2022-08-18T15:37:21;98377.44;;;33.94;27.25